Time;durP1;ratioP1;P1;durP2;ratioP2;P2;SDS_P1;SDS_P2;PMS_P1;PMS_P2;Temp;Humidity;BMP_temperature;BMP_pressure;BME280_temperature;BME280_humidity;BME280_pressure;Samples;Min_cycle;Max_cycle;Signal;HPM_P1;HPM_P2
2021/05/02 00:01:39;;;;;;;64.70;33.03;;;;;;;-141.50;100.00;63355.56;5079314;28;20131;-80
2021/05/02 00:04:06;;;;;;;64.03;34.28;;;;;;;-141.50;100.00;63355.56;5077726;28;20052;-79
2021/05/02 00:06:32;;;;;;;60.17;32.10;;;;;;;-141.50;100.00;63355.56;5060574;28;20040;-80
2021/05/02 00:08:59;;;;;;;66.53;33.40;;;;;;;-141.50;100.00;63355.56;5060303;28;20048;-79
2021/05/02 00:11:25;;;;;;;64.65;34.20;;;;;;;-141.50;100.00;63355.56;5073214;28;20056;-79
2021/05/02 00:13:51;;;;;;;60.78;32.65;;;;;;;-141.50;100.00;63355.56;5058164;28;20052;-77
2021/05/02 00:16:17;;;;;;;57.78;31.88;;;;;;;-141.50;100.00;63355.56;5054894;28;20128;-79
2021/05/02 00:18:46;;;;;;;57.47;31.23;;;;;;;-141.50;100.00;63355.56;5042821;28;20344;-80
2021/05/02 00:21:13;;;;;;;57.47;30.60;;;;;;;-141.50;100.00;63355.56;5042727;28;20061;-81
2021/05/02 00:23:41;;;;;;;57.58;29.58;;;;;;;-141.50;100.00;63355.56;5043969;28;20048;-82
2021/05/02 00:26:09;;;;;;;57.50;31.25;;;;;;;-141.50;100.00;63355.56;5043903;28;20049;-80
2021/05/02 00:28:38;;;;;;;65.18;32.40;;;;;;;-141.50;100.00;63355.56;5059099;28;20049;-79
2021/05/02 00:31:06;;;;;;;63.05;32.40;;;;;;;-141.50;100.00;63355.56;5037222;28;20102;-81
2021/05/02 00:33:35;;;;;;;59.85;31.05;;;;;;;-141.50;100.00;63355.56;5060548;28;20084;-80
2021/05/02 00:36:03;;;;;;;66.78;33.03;;;;;;;-141.50;100.00;63355.56;5043231;28;20553;-81
2021/05/02 00:38:29;;;;;;;64.70;31.55;;;;;;;-141.50;100.00;63355.56;5057756;28;20067;-80
2021/05/02 00:41:03;;;;;;;57.80;29.83;;;;;;;-141.50;100.00;63355.56;5025477;28;20079;-81
2021/05/02 00:43:39;;;;;;;62.95;30.70;;;;;;;-141.50;100.00;63355.56;5058317;28;20052;-80
2021/05/02 00:46:10;;;;;;;;;;;;;;;-141.50;100.00;63355.56;5060334;28;20207;-80
2021/05/02 00:48:52;;;;;;;59.45;29.40;;;;;;;-141.50;100.00;63355.56;5037331;28;19924;-79
2021/05/02 00:51:21;;;;;;;57.47;28.85;;;;;;;-141.50;100.00;63355.56;5055048;28;20468;-79
2021/05/02 00:53:53;;;;;;;58.40;29.42;;;;;;;-141.50;100.00;63355.56;5061162;28;20045;-79
2021/05/02 00:56:25;;;;;;;60.63;29.80;;;;;;;-141.50;100.00;63355.56;5045057;28;20040;-81
2021/05/02 00:59:05;;;;;;;63.80;30.17;;;;;;;-141.50;100.00;63355.56;5047092;28;20117;-79
2021/05/02 01:01:38;;;;;;;58.45;29.70;;;;;;;-141.50;100.00;63355.56;5076922;28;20052;-80
2021/05/02 01:04:05;;;;;;;56.50;29.17;;;;;;;-141.50;100.00;63355.56;5051879;28;20056;-79
2021/05/02 01:06:33;;;;;;;56.13;29.45;;;;;;;-141.50;100.00;63355.56;5019573;28;20436;-80
2021/05/02 01:09:03;;;;;;;58.05;29.33;;;;;;;-141.50;100.00;63355.56;5040938;28;20126;-80
2021/05/02 01:11:30;;;;;;;56.97;28.33;;;;;;;-141.50;100.00;63355.56;5057492;28;20102;-79
2021/05/02 01:14:00;;;;;;;58.15;29.80;;;;;;;-141.50;100.00;63355.56;5036520;28;20033;-79
2021/05/02 01:16:39;;;;;;;55.80;28.48;;;;;;;-141.50;100.00;63355.56;5057936;28;20102;-81
2021/05/02 01:19:08;;;;;;;61.85;30.38;;;;;;;-141.50;100.00;63355.56;5056577;28;20228;-81
2021/05/02 01:21:40;;;;;;;56.20;29.70;;;;;;;-141.50;100.00;63355.56;5060616;28;20098;-82
2021/05/02 01:24:11;;;;;;;52.95;29.60;;;;;;;-141.50;100.00;63355.56;5071131;28;20044;-77
2021/05/02 01:26:43;;;;;;;54.90;28.17;;;;;;;-141.50;100.00;63355.56;5073279;28;20544;-80
2021/05/02 01:29:10;;;;;;;59.03;28.23;;;;;;;-141.50;100.00;63355.56;5072982;28;20060;-80
2021/05/02 01:31:37;;;;;;;54.88;28.98;;;;;;;-141.50;100.00;63355.56;5071793;28;20052;-80
2021/05/02 01:34:04;;;;;;;54.13;29.10;;;;;;;-141.50;100.00;63355.56;5057454;28;20036;-80
2021/05/02 01:36:31;;;;;;;58.20;29.52;;;;;;;-141.50;100.00;63355.56;5043678;28;20056;-80
2021/05/02 01:38:57;;;;;;;57.78;30.08;;;;;;;-141.50;100.00;63355.56;5044030;28;20056;-80
2021/05/02 01:41:27;;;;;;;54.17;28.30;;;;;;;-141.50;100.00;63355.56;5060636;28;20045;-81
2021/05/02 01:43:53;;;;;;;54.72;28.00;;;;;;;-141.50;100.00;63355.56;5090788;28;20055;-81
2021/05/02 01:46:36;;;;;;;54.38;26.50;;;;;;;-141.50;100.00;63355.56;5081453;28;20045;-79
2021/05/02 01:49:04;;;;;;;46.15;25.13;;;;;;;-141.50;100.00;63355.56;5037517;28;20053;-78
2021/05/02 01:51:35;;;;;;;46.53;25.30;;;;;;;-141.50;100.00;63355.56;5061026;28;20063;-80
2021/05/02 01:54:03;;;;;;;48.45;26.23;;;;;;;-141.50;100.00;63355.56;5061745;28;20045;-80
2021/05/02 01:56:31;;;;;;;47.38;24.83;;;;;;;-141.50;100.00;63355.56;5044459;28;20052;-81
2021/05/02 01:59:04;;;;;;;47.08;24.48;;;;;;;-141.50;100.00;63355.56;5062160;28;20045;-80
2021/05/02 02:01:30;;;;;;;51.25;25.58;;;;;;;-141.50;100.00;63355.56;5059015;28;20071;-80
2021/05/02 02:04:01;;;;;;;47.83;25.73;;;;;;;-141.50;100.00;63355.56;5058290;28;20045;-78
2021/05/02 02:06:29;;;;;;;45.88;25.95;;;;;;;-141.50;100.00;63355.56;5039345;28;20098;-78
2021/05/02 02:08:58;;;;;;;46.25;24.38;;;;;;;-141.50;100.00;63355.56;5057473;28;20056;-78
2021/05/02 02:11:29;;;;;;;47.95;25.65;;;;;;;-141.50;100.00;63355.56;5059833;28;20037;-80
2021/05/02 02:13:56;;;;;;;49.10;24.67;;;;;;;-141.50;100.00;63355.56;5062494;28;20040;-80
2021/05/02 02:16:23;;;;;;;43.30;23.50;;;;;;;-141.50;100.00;63355.56;5062359;28;20052;-80
2021/05/02 02:18:50;;;;;;;40.45;22.52;;;;;;;-141.50;100.00;63355.56;5083295;28;20118;-78
2021/05/02 02:21:20;;;;;;;46.33;24.27;;;;;;;-141.50;100.00;63355.56;5070789;28;20442;-78
2021/05/02 02:23:56;;;;;;;49.35;25.25;;;;;;;-141.50;100.00;63355.56;5071840;28;20044;-80
2021/05/02 02:26:43;;;;;;;44.28;23.60;;;;;;;-141.50;100.00;63355.56;5056715;28;20040;-80
2021/05/02 02:29:12;;;;;;;52.42;25.65;;;;;;;-141.50;100.00;63355.56;5076694;28;20051;-80
2021/05/02 02:31:44;;;;;;;49.05;25.02;;;;;;;-141.50;100.00;63355.56;5077817;28;20262;-80
2021/05/02 02:34:13;;;;;;;42.83;23.75;;;;;;;-141.50;100.00;63355.56;5080912;28;20040;-82
2021/05/02 02:36:42;;;;;;;44.00;23.38;;;;;;;-141.50;100.00;63355.56;5080344;28;20060;-80
2021/05/02 02:39:09;;;;;;;45.33;24.08;;;;;;;-141.50;100.00;63355.56;5079365;28;20150;-81
2021/05/02 02:41:38;;;;;;;44.45;24.25;;;;;;;-141.50;100.00;63355.56;5080787;28;20078;-80
2021/05/02 02:44:09;;;;;;;40.55;22.17;;;;;;;-141.50;100.00;63355.56;5082046;28;20068;-80
2021/05/02 02:46:57;;;;;;;42.80;23.95;;;;;;;-141.50;100.00;63355.56;5074314;28;20056;-81
2021/05/02 02:49:27;;;;;;;42.72;22.80;;;;;;;-141.50;100.00;63355.56;5061618;28;20327;-80
2021/05/02 02:51:56;;;;;;;42.00;22.63;;;;;;;-141.50;100.00;63355.56;5064384;28;20091;-80
2021/05/02 02:54:23;;;;;;;41.88;22.15;;;;;;;-141.50;100.00;63355.56;5062562;28;20451;-80
2021/05/02 02:56:53;;;;;;;44.10;24.00;;;;;;;-141.50;100.00;63355.56;5064455;28;20045;-80
2021/05/02 02:59:23;;;;;;;43.80;23.15;;;;;;;-141.50;100.00;63355.56;5063697;28;20059;-80
2021/05/02 03:01:50;;;;;;;44.70;24.23;;;;;;;-141.50;100.00;63355.56;5060571;28;20292;-81
2021/05/02 03:04:17;;;;;;;40.75;22.88;;;;;;;-141.50;100.00;63355.56;5061163;28;20084;-81
2021/05/02 03:06:45;;;;;;;41.72;23.33;;;;;;;-141.50;100.00;63355.56;5060929;28;20056;-81
2021/05/02 03:09:15;;;;;;;47.20;25.17;;;;;;;-141.50;100.00;63355.56;5060655;28;20087;-81
2021/05/02 03:11:42;;;;;;;51.25;25.95;;;;;;;-141.50;100.00;63355.56;5068342;28;20031;-79
2021/05/02 03:14:12;;;;;;;46.47;24.85;;;;;;;-141.50;100.00;63355.56;5068830;28;20045;-79
2021/05/02 03:16:41;;;;;;;48.03;25.10;;;;;;;-141.50;100.00;63355.56;5070645;28;20044;-80
2021/05/02 03:19:27;;;;;;;44.85;24.60;;;;;;;-141.50;100.00;63355.56;5073011;28;20098;-80
2021/05/02 03:22:13;;;;;;;52.88;26.42;;;;;;;-141.50;100.00;63355.56;5076436;28;20276;-79
2021/05/02 03:24:56;;;;;;;54.35;27.25;;;;;;;-141.50;100.00;63355.56;5078557;28;20069;-79
2021/05/02 03:27:26;;;;;;;52.35;27.27;;;;;;;-141.50;100.00;63355.56;5079937;28;20075;-80
2021/05/02 03:29:57;;;;;;;56.55;27.17;;;;;;;-141.50;100.00;63355.56;5081722;28;20040;-79
2021/05/02 03:32:31;;;;;;;53.05;27.98;;;;;;;-141.50;100.00;63355.56;5077660;28;20045;-79
2021/05/02 03:34:59;;;;;;;56.33;29.17;;;;;;;-141.50;100.00;63355.56;5064274;28;20074;-79
2021/05/02 03:37:31;;;;;;;58.80;29.20;;;;;;;-141.50;100.00;63355.56;5045073;28;20072;-80
2021/05/02 03:39:58;;;;;;;62.05;29.67;;;;;;;-141.50;100.00;63355.56;5062674;28;20247;-80
2021/05/02 03:42:25;;;;;;;57.17;29.27;;;;;;;-141.50;100.00;63355.56;5062642;28;20115;-80
2021/05/02 03:44:51;;;;;;;59.20;29.90;;;;;;;-141.50;100.00;63355.56;5062180;28;20526;-79
2021/05/02 03:47:18;;;;;;;56.17;27.88;;;;;;;-141.50;100.00;63355.56;5060682;28;20075;-80
2021/05/02 03:49:46;;;;;;;50.60;26.75;;;;;;;-141.50;100.00;63355.56;5060058;28;20519;-82
2021/05/02 03:52:16;;;;;;;48.10;26.95;;;;;;;-141.50;100.00;63355.56;5061409;28;20062;-79
2021/05/02 03:54:43;;;;;;;54.83;27.55;;;;;;;-141.50;100.00;63355.56;5079200;28;20052;-79
2021/05/02 03:57:10;;;;;;;57.25;28.13;;;;;;;-141.50;100.00;63355.56;5083279;28;20276;-82
2021/05/02 03:59:37;;;;;;;54.22;28.33;;;;;;;-141.50;100.00;63355.56;5059300;28;20057;-80
2021/05/02 04:02:04;;;;;;;53.95;28.70;;;;;;;-141.50;100.00;63355.56;5062020;28;20458;-79
2021/05/02 04:04:35;;;;;;;50.72;27.67;;;;;;;-141.50;100.00;63355.56;5086510;28;20033;-81
2021/05/02 04:07:06;;;;;;;56.63;27.85;;;;;;;-141.50;100.00;63355.56;5075733;28;20041;-80
2021/05/02 04:09:34;;;;;;;53.42;28.00;;;;;;;-141.50;100.00;63355.56;5082001;28;20131;-80
2021/05/02 04:12:01;;;;;;;52.72;26.83;;;;;;;-141.50;100.00;63355.56;5086044;28;20600;-80
2021/05/02 04:14:27;;;;;;;52.30;28.63;;;;;;;-141.50;100.00;63355.56;5065343;28;20041;-80
2021/05/02 04:17:01;;;;;;;47.72;26.30;;;;;;;-141.50;100.00;63355.56;5083742;28;20115;-80
2021/05/02 04:19:32;;;;;;;44.10;24.20;;;;;;;-141.50;100.00;63355.56;5083060;28;20052;-80
2021/05/02 04:21:58;;;;;;;50.10;24.80;;;;;;;-141.50;100.00;63355.56;5083063;28;20044;-79
2021/05/02 04:24:25;;;;;;;51.28;25.67;;;;;;;-141.50;100.00;63355.56;5094249;23;20056;-79
2021/05/02 04:26:53;;;;;;;49.95;26.40;;;;;;;-141.50;100.00;63355.56;5030662;28;20062;-79
2021/05/02 04:29:23;;;;;;;47.67;26.90;;;;;;;-141.50;100.00;63355.56;5050664;28;20601;-81
2021/05/02 04:31:50;;;;;;;48.30;27.38;;;;;;;-141.50;100.00;63355.56;5037067;28;20049;-80
2021/05/02 04:34:16;;;;;;;53.08;27.85;;;;;;;-141.50;100.00;63355.56;5052496;28;20044;-80
2021/05/02 04:36:42;;;;;;;50.60;27.45;;;;;;;-141.50;100.00;63355.56;5051314;28;20061;-80
2021/05/02 04:39:10;;;;;;;53.92;28.42;;;;;;;-141.50;100.00;63355.56;5050400;28;20620;-80
2021/05/02 04:41:38;;;;;;;57.42;28.92;;;;;;;-141.50;100.00;63355.56;5033622;28;20103;-80
2021/05/02 04:44:04;;;;;;;58.85;29.42;;;;;;;-141.50;100.00;63355.56;5048339;28;20056;-80
2021/05/02 04:46:30;;;;;;;54.28;29.27;;;;;;;-141.50;100.00;63355.56;5027748;28;20053;-80
2021/05/02 04:48:57;;;;;;;56.45;29.63;;;;;;;-141.50;100.00;63355.56;5029696;28;20053;-80
2021/05/02 04:51:23;;;;;;;52.30;28.88;;;;;;;-141.50;100.00;63355.56;5032063;28;20060;-80
2021/05/02 04:53:51;;;;;;;51.58;28.23;;;;;;;-141.50;100.00;63355.56;5027652;28;20049;-80
2021/05/02 04:56:20;;;;;;;57.05;28.13;;;;;;;-141.50;100.00;63355.56;5029406;28;20511;-79
2021/05/02 04:58:46;;;;;;;51.55;28.20;;;;;;;-141.50;100.00;63355.56;5029000;28;20050;-80
2021/05/02 05:01:13;;;;;;;48.22;26.90;;;;;;;-141.50;100.00;63355.56;5029132;28;20046;-80
2021/05/02 05:03:41;;;;;;;53.90;28.25;;;;;;;-141.50;100.00;63355.56;5040732;28;20123;-80
2021/05/02 05:06:09;;;;;;;54.88;28.35;;;;;;;-141.50;100.00;63355.56;5048510;28;20267;-80
2021/05/02 05:08:35;;;;;;;53.42;28.73;;;;;;;-141.50;100.00;63355.56;5048112;28;20059;-79
2021/05/02 05:11:02;;;;;;;51.25;28.50;;;;;;;-141.50;100.00;63355.56;5031633;28;20057;-79
2021/05/02 05:13:28;;;;;;;54.45;28.67;;;;;;;-141.50;100.00;63355.56;5030913;28;20049;-80
2021/05/02 05:15:55;;;;;;;48.28;27.80;;;;;;;-141.50;100.00;63355.56;5047211;28;20055;-79
2021/05/02 05:18:22;;;;;;;50.60;27.50;;;;;;;-141.50;100.00;63355.56;5046681;28;20086;-80
2021/05/02 05:20:49;;;;;;;57.85;29.50;;;;;;;-141.50;100.00;63355.56;5046896;28;20167;-80
2021/05/02 05:23:15;;;;;;;53.97;28.15;;;;;;;-141.50;100.00;63355.56;5046919;28;20189;-80
2021/05/02 05:25:44;;;;;;;52.80;28.73;;;;;;;-141.50;100.00;63355.56;5043197;28;20493;-82
2021/05/02 05:28:10;;;;;;;51.33;27.55;;;;;;;-141.50;100.00;63355.56;5022359;28;20516;-81
2021/05/02 05:30:37;;;;;;;52.83;29.42;;;;;;;-141.50;100.00;63355.56;5046273;28;20050;-79
2021/05/02 05:33:08;;;;;;;56.08;29.23;;;;;;;-141.50;100.00;63355.56;5025373;28;20064;-80
2021/05/02 05:35:37;;;;;;;56.17;29.17;;;;;;;-141.50;100.00;63355.56;5034135;28;20075;-80
2021/05/02 05:38:05;;;;;;;58.10;30.63;;;;;;;-141.50;100.00;63355.56;5047388;28;20045;-80
2021/05/02 05:40:32;;;;;;;56.20;30.35;;;;;;;-141.50;100.00;63355.56;5032261;28;20513;-80
2021/05/02 05:43:03;;;;;;;61.50;30.52;;;;;;;-141.50;100.00;63355.56;5034661;28;20085;-80
2021/05/02 05:45:32;;;;;;;62.55;32.38;;;;;;;-141.50;100.00;63355.56;5033714;28;20057;-80
2021/05/02 05:47:59;;;;;;;58.80;31.15;;;;;;;-141.50;100.00;63355.56;5047067;28;20416;-81
2021/05/02 05:50:27;;;;;;;60.58;31.45;;;;;;;-141.50;100.00;63355.56;5030149;28;20049;-80
2021/05/02 05:52:53;;;;;;;60.85;32.00;;;;;;;-141.50;100.00;63355.56;5034427;28;20230;-81
2021/05/02 05:55:20;;;;;;;64.25;33.83;;;;;;;-141.50;100.00;63355.56;5049521;28;20048;-80
2021/05/02 05:57:48;;;;;;;63.22;32.80;;;;;;;-141.50;100.00;63355.56;5040723;28;20048;-80
2021/05/02 06:00:16;;;;;;;60.72;31.77;;;;;;;-141.50;100.00;63355.56;5014228;28;20045;-79
2021/05/02 06:02:43;;;;;;;66.38;34.08;;;;;;;-141.50;100.00;63355.56;5017949;28;20059;-79
2021/05/02 06:05:10;;;;;;;60.28;32.50;;;;;;;-141.50;100.00;63355.56;5055697;28;20068;-79
2021/05/02 06:07:37;;;;;;;64.68;34.90;;;;;;;-141.50;100.00;63355.56;5025517;28;20260;-81
2021/05/02 06:10:04;;;;;;;66.40;33.58;;;;;;;-141.50;100.00;63355.56;5000796;28;20292;-80
2021/05/02 06:12:31;;;;;;;65.95;34.30;;;;;;;-141.50;100.00;63355.56;5017110;28;20654;-80
2021/05/02 06:14:58;;;;;;;70.40;35.03;;;;;;;-141.50;100.00;63355.56;5050204;28;20061;-80
2021/05/02 06:17:24;;;;;;;66.50;35.35;;;;;;;-141.50;100.00;63355.56;5036199;28;20049;-81
2021/05/02 06:19:50;;;;;;;73.47;36.38;;;;;;;-141.50;100.00;63355.56;5050968;28;20040;-80
2021/05/02 06:22:16;;;;;;;71.15;36.72;;;;;;;-141.50;100.00;63355.56;5050720;28;20047;-80
2021/05/02 06:24:42;;;;;;;69.78;36.05;;;;;;;-141.50;100.00;63355.56;5054284;28;20424;-79
2021/05/02 06:27:09;;;;;;;67.20;35.60;;;;;;;-141.50;100.00;63355.56;5072007;28;20419;-82
2021/05/02 06:29:36;;;;;;;67.53;33.63;;;;;;;-141.50;100.00;63355.56;5070392;28;20147;-81
2021/05/02 06:32:05;;;;;;;60.63;32.38;;;;;;;-141.50;100.00;63355.56;5070503;28;20049;-78
2021/05/02 06:34:32;;;;;;;63.67;30.83;;;;;;;-141.50;100.00;63355.56;5071350;28;20053;-84
2021/05/02 06:37:01;;;;;;;57.38;32.20;;;;;;;-141.50;100.00;63355.56;5026615;28;20550;-82
2021/05/02 06:39:27;;;;;;;54.88;29.77;;;;;;;-141.50;100.00;63355.56;5032885;28;20480;-80
2021/05/02 06:41:53;;;;;;;60.38;31.75;;;;;;;-141.50;100.00;63355.56;5032521;28;20107;-79
2021/05/02 06:44:20;;;;;;;57.22;31.80;;;;;;;-141.50;100.00;63355.56;5042010;28;20115;-81
2021/05/02 06:46:47;;;;;;;55.90;30.88;;;;;;;-141.50;100.00;63355.56;5057607;28;20072;-79
2021/05/02 06:49:13;;;;;;;54.20;30.15;;;;;;;-141.50;100.00;63355.56;5059120;28;20050;-82
2021/05/02 06:51:40;;;;;;;60.85;31.42;;;;;;;-141.50;100.00;63355.56;5043741;28;20109;-80
2021/05/02 06:54:08;;;;;;;68.78;33.30;;;;;;;-141.50;100.00;63355.56;5011330;28;20060;-81
2021/05/02 06:56:35;;;;;;;66.47;35.85;;;;;;;-141.50;100.00;63355.56;5027563;28;20485;-82
2021/05/02 06:59:02;;;;;;;61.28;32.60;;;;;;;-141.50;100.00;63355.56;5050577;28;20044;-80
2021/05/02 07:01:28;;;;;;;65.00;34.20;;;;;;;-141.50;100.00;63355.56;5068240;28;20055;-81
2021/05/02 07:03:54;;;;;;;58.05;32.70;;;;;;;-141.50;100.00;63355.56;5068617;28;20036;-82
2021/05/02 07:06:32;;;;;;;57.88;32.83;;;;;;;-141.50;100.00;63355.56;5035215;28;20049;-83
2021/05/02 07:08:58;;;;;;;52.90;28.95;;;;;;;-141.50;100.00;63355.56;5040353;28;20219;-82
2021/05/02 07:11:27;;;;;;;52.60;29.85;;;;;;;-141.50;100.00;63355.56;5023349;28;20064;-82
2021/05/02 07:13:53;;;;;;;55.90;31.52;;;;;;;-141.50;100.00;63355.56;5039874;28;20052;-77
2021/05/02 07:16:22;;;;;;;53.85;30.85;;;;;;;-141.50;100.00;63355.56;5026219;28;20087;-80
2021/05/02 07:18:50;;;;;;;56.15;30.42;;;;;;;-141.50;100.00;63355.56;5013922;28;20044;-82
2021/05/02 07:21:19;;;;;;;49.42;27.98;;;;;;;-141.50;100.00;63355.56;4999039;28;20048;-80
2021/05/02 07:23:51;;;;;;;50.63;28.85;;;;;;;-141.50;100.00;63355.56;5043963;28;20041;-80
2021/05/02 07:26:20;;;;;;;52.92;28.58;;;;;;;-141.50;100.00;63355.56;5031583;28;20072;-81
2021/05/02 07:28:47;;;;;;;49.63;28.08;;;;;;;-141.50;100.00;63355.56;5029025;28;20138;-83
2021/05/02 07:31:13;;;;;;;53.25;28.73;;;;;;;-141.50;100.00;63355.56;5069819;28;20041;-83
2021/05/02 07:33:43;;;;;;;49.35;28.98;;;;;;;-141.50;100.00;63355.56;5066138;28;20044;-82
2021/05/02 07:36:09;;;;;;;51.05;28.65;;;;;;;-141.50;100.00;63355.56;5079243;28;20040;-85
2021/05/02 07:38:36;;;;;;;49.70;29.33;;;;;;;-141.50;100.00;63355.56;5033855;28;20069;-81
2021/05/02 07:41:04;;;;;;;54.83;31.20;;;;;;;-141.50;100.00;63355.56;5049172;28;20098;-81
2021/05/02 07:43:32;;;;;;;57.65;31.02;;;;;;;-141.50;100.00;63355.56;5051165;28;20048;-82
2021/05/02 07:46:01;;;;;;;55.00;30.15;;;;;;;-141.50;100.00;63355.56;5053611;28;20049;-82
2021/05/02 07:48:27;;;;;;;47.75;28.13;;;;;;;-141.50;100.00;63355.56;5056029;28;20055;-83
2021/05/02 07:50:54;;;;;;;51.13;27.33;;;;;;;-141.50;100.00;63355.56;5055137;28;20123;-84
2021/05/02 07:53:22;;;;;;;41.65;25.00;;;;;;;-141.50;100.00;63355.56;5041506;28;20572;-86
2021/05/02 07:55:48;;;;;;;48.50;27.50;;;;;;;-141.50;100.00;63355.56;5017096;28;20501;-84
2021/05/02 07:58:14;;;;;;;49.75;26.83;;;;;;;-141.50;100.00;63355.56;5017670;28;20040;-83
2021/05/02 08:00:41;;;;;;;41.78;24.67;;;;;;;-141.50;100.00;63355.56;5032322;28;20045;-83
2021/05/02 08:03:07;;;;;;;42.72;25.33;;;;;;;-141.50;100.00;63355.56;5033193;28;20139;-85
2021/05/02 08:05:33;;;;;;;42.95;23.33;;;;;;;-141.50;100.00;63355.56;5036709;28;20059;-82
2021/05/02 08:07:59;;;;;;;41.20;24.15;;;;;;;-141.50;100.00;63355.56;5041233;28;20555;-83
2021/05/02 08:10:26;;;;;;;36.45;22.25;;;;;;;-141.50;100.00;63355.56;5057647;28;20108;-86
2021/05/02 08:12:53;;;;;;;38.42;21.55;;;;;;;-141.50;100.00;63355.56;5003077;28;20045;-84
2021/05/02 08:15:22;;;;;;;29.25;19.00;;;;;;;-141.50;100.00;63355.56;4997992;28;20057;-83
2021/05/02 08:17:49;;;;;;;37.35;21.17;;;;;;;-141.50;100.00;63355.56;5032926;28;20045;-82
2021/05/02 08:20:15;;;;;;;33.17;19.48;;;;;;;-141.50;100.00;63355.56;5070654;28;20059;-84
2021/05/02 08:22:41;;;;;;;31.77;19.35;;;;;;;-141.50;100.00;63355.56;5039375;28;20048;-83
2021/05/02 08:25:08;;;;;;;32.10;19.77;;;;;;;-141.50;100.00;63355.56;5037942;28;20052;-85
2021/05/02 08:27:35;;;;;;;33.33;20.20;;;;;;;-141.50;100.00;63355.56;5041796;28;20423;-84
2021/05/02 08:30:04;;;;;;;36.88;20.98;;;;;;;-141.50;100.00;63355.56;5057364;28;20052;-83
2021/05/02 08:32:30;;;;;;;40.33;21.95;;;;;;;-141.50;100.00;63355.56;5057551;28;20158;-83
2021/05/02 08:34:56;;;;;;;39.13;21.75;;;;;;;-141.50;100.00;63355.56;5039507;28;20076;-84
2021/05/02 08:37:22;;;;;;;33.50;20.38;;;;;;;-141.50;100.00;63355.56;5058117;28;20408;-86
2021/05/02 08:39:49;;;;;;;34.72;20.80;;;;;;;-141.50;100.00;63355.56;5075450;28;20048;-85
2021/05/02 08:42:15;;;;;;;30.27;18.35;;;;;;;-141.50;100.00;63355.56;5054685;28;20051;-85
2021/05/02 08:44:42;;;;;;;30.52;17.63;;;;;;;-141.50;100.00;63355.56;5041268;28;20052;-85
2021/05/02 08:47:14;;;;;;;29.15;17.38;;;;;;;-141.50;100.00;63355.56;5054186;28;20045;-85
2021/05/02 08:49:42;;;;;;;29.02;17.67;;;;;;;-141.50;100.00;63355.56;5051424;28;20083;-84
2021/05/02 08:52:09;;;;;;;30.25;17.52;;;;;;;-141.50;100.00;63355.56;5058977;28;20045;-85
2021/05/02 08:54:36;;;;;;;29.23;17.75;;;;;;;-141.50;100.00;63355.56;5019063;28;20053;-85
2021/05/02 08:57:03;;;;;;;27.13;16.48;;;;;;;-141.50;100.00;63355.56;5017949;28;20061;-85
2021/05/02 08:59:30;;;;;;;23.13;14.60;;;;;;;-141.50;100.00;63355.56;5029682;28;20052;-84
2021/05/02 09:01:57;;;;;;;25.08;15.85;;;;;;;-141.50;100.00;63355.56;5037858;28;20052;-84
2021/05/02 09:04:24;;;;;;;24.00;15.00;;;;;;;-141.50;100.00;63355.56;5053815;28;20059;-85
2021/05/02 09:06:51;;;;;;;20.80;13.23;;;;;;;-141.50;100.00;63355.56;5037302;28;20044;-85
2021/05/02 09:09:18;;;;;;;19.88;13.80;;;;;;;-141.50;100.00;63355.56;5028051;28;20104;-86
2021/05/02 09:11:54;;;;;;;22.38;13.88;;;;;;;-141.50;100.00;63355.56;5021950;28;20326;-84
2021/05/02 09:14:31;;;;;;;21.05;12.65;;;;;;;-141.50;100.00;63355.56;4998762;28;20149;-87
2021/05/02 09:17:13;;;;;;;22.55;14.07;;;;;;;-141.50;100.00;63355.56;4998161;28;20520;-87
2021/05/02 09:19:50;;;;;;;18.77;12.23;;;;;;;-141.50;100.00;63355.56;5033578;28;20042;-88
2021/05/02 09:22:21;;;;;;;16.75;11.23;;;;;;;-141.50;100.00;63355.56;5058947;28;20139;-86
2021/05/02 09:25:04;;;;;;;17.67;11.52;;;;;;;-141.50;100.00;63355.56;5055660;28;20050;-86
2021/05/02 09:27:50;;;;;;;16.70;10.98;;;;;;;-141.50;100.00;63355.56;5048381;28;20044;-86
2021/05/02 09:30:18;;;;;;;17.98;11.70;;;;;;;-141.50;100.00;63355.56;5039459;28;20060;-88
2021/05/02 09:32:49;;;;;;;18.50;12.02;;;;;;;-141.50;100.00;63355.56;5059957;28;20080;-85
2021/05/02 09:35:35;;;;;;;17.60;12.52;;;;;;;-141.50;100.00;63355.56;5052555;28;20049;-86
2021/05/02 09:38:15;;;;;;;19.90;12.50;;;;;;;-141.50;100.00;63355.56;5035344;28;20060;-85
2021/05/02 09:40:49;;;;;;;22.45;13.68;;;;;;;-141.50;100.00;63355.56;5039781;28;20505;-85
2021/05/02 09:43:44;;;;;;;22.38;14.45;;;;;;;-141.50;100.00;63355.56;5020329;28;20056;-86
2021/05/02 09:46:30;;;;;;;30.48;17.67;;;;;;;-141.50;100.00;63355.56;5023598;28;20049;-86
2021/05/02 09:49:09;;;;;;;36.28;21.92;;;;;;;-141.50;100.00;63355.56;5025284;28;20058;-86
2021/05/02 09:51:57;;;;;;;43.72;26.48;;;;;;;-141.50;100.00;63355.56;5043485;28;20076;-85
2021/05/02 09:54:28;;;;;;;61.90;34.38;;;;;;;-141.50;100.00;63355.56;5046901;28;20045;-85
2021/05/02 09:57:04;;;;;;;68.03;39.53;;;;;;;-141.50;100.00;63355.56;5042136;28;20048;-83
2021/05/02 09:59:33;;;;;;;84.40;46.33;;;;;;;-141.50;100.00;63355.56;5046142;28;20053;-87
2021/05/02 10:02:11;;;;;;;89.85;50.45;;;;;;;-141.50;100.00;63355.56;5068943;28;20136;-85
2021/05/02 10:07:58;;;;;;;89.13;49.28;;;;;;;-141.50;100.00;63355.56;5036110;28;19932;-88
2021/05/02 10:10:28;;;;;;;103.95;54.00;;;;;;;-141.50;100.00;63355.56;5056100;28;20059;-85
2021/05/02 10:13:07;;;;;;;99.13;51.15;;;;;;;-141.50;100.00;63355.56;5041530;28;20060;-86
2021/05/02 10:15:34;;;;;;;102.90;54.55;;;;;;;-141.50;100.00;63355.56;5054541;28;20076;-84
2021/05/02 10:18:01;;;;;;;90.60;50.13;;;;;;;-141.50;100.00;63355.56;5053369;28;20044;-83
2021/05/02 10:20:30;;;;;;;92.93;49.85;;;;;;;-141.50;100.00;63355.56;5053457;28;20040;-86
2021/05/02 10:23:14;;;;;;;85.35;47.17;;;;;;;-141.50;100.00;63355.56;5055484;28;20041;-83
2021/05/02 10:25:41;;;;;;;79.80;43.67;;;;;;;-141.50;100.00;63355.56;5056860;23;20059;-81
2021/05/02 10:28:08;;;;;;;81.80;44.65;;;;;;;-141.50;100.00;63355.56;5048937;28;20040;-80
2021/05/02 10:30:39;;;;;;;82.22;43.20;;;;;;;-141.50;100.00;63355.56;5067134;28;20052;-80
2021/05/02 10:33:13;;;;;;;82.88;44.97;;;;;;;-141.50;100.00;63355.56;5073050;28;20068;-80
2021/05/02 10:35:47;;;;;;;82.65;43.05;;;;;;;-141.50;100.00;63355.56;5054190;28;20071;-80
2021/05/02 10:38:20;;;;;;;74.32;41.97;;;;;;;-141.50;100.00;63355.56;5071042;28;20366;-79
2021/05/02 10:40:46;;;;;;;73.88;41.30;;;;;;;-141.50;100.00;63355.56;5071453;28;20044;-79
2021/05/02 10:43:29;;;;;;;80.60;40.92;;;;;;;-141.50;100.00;63355.56;5074632;28;20036;-80
2021/05/02 10:45:56;;;;;;;73.50;39.45;;;;;;;-141.50;100.00;63355.56;5069550;28;20052;-79
2021/05/02 10:48:23;;;;;;;64.90;35.67;;;;;;;-141.50;100.00;63355.56;5052870;28;20049;-78
2021/05/02 10:50:52;;;;;;;72.88;38.15;;;;;;;-141.50;100.00;63355.56;5053934;28;20055;-79
2021/05/02 10:53:23;;;;;;;72.82;40.67;;;;;;;-141.50;100.00;63355.56;5051418;28;20603;-79
2021/05/02 10:56:06;;;;;;;67.55;39.22;;;;;;;-141.50;100.00;63355.56;5053148;28;20098;-80
2021/05/02 10:58:38;;;;;;;67.70;37.42;;;;;;;-141.50;100.00;63355.56;5051294;28;20056;-79
2021/05/02 11:01:23;;;;;;;72.00;38.00;;;;;;;-141.50;100.00;63355.56;5052147;28;20264;-80
2021/05/02 11:03:52;;;;;;;72.78;38.35;;;;;;;-141.50;100.00;63355.56;5051114;28;20149;-81
2021/05/02 11:06:37;;;;;;;64.72;36.25;;;;;;;-141.50;100.00;63355.56;5071068;28;20052;-82
2021/05/02 11:09:07;;;;;;;66.53;36.53;;;;;;;-141.50;100.00;63355.56;5072321;28;20053;-80